createdAt,value
2017-05-30T00:02:25.119Z,5.86
2017-05-30T00:04:53.342Z,5.98
2017-05-30T00:07:21.560Z,6.46
2017-05-30T00:09:49.780Z,6.90
2017-05-30T00:12:17.995Z,6.86
2017-05-30T00:14:46.216Z,7.02
2017-05-30T00:17:14.439Z,6.62
2017-05-30T00:19:42.660Z,7.86
2017-05-30T00:22:10.875Z,7.30
2017-05-30T00:24:39.096Z,7.26
2017-05-30T00:27:07.316Z,6.90
2017-05-30T00:29:35.536Z,6.80
2017-05-30T00:32:03.756Z,6.64
2017-05-30T00:34:31.976Z,6.40
2017-05-30T00:37:00.190Z,6.14
2017-05-30T00:39:28.411Z,6.12
2017-05-30T00:41:56.623Z,4.98
2017-05-30T00:44:24.856Z,4.88
2017-05-30T00:46:53.063Z,4.96
2017-05-30T00:49:21.356Z,4.18
2017-05-30T00:51:49.526Z,4.44
2017-05-30T00:54:17.742Z,4.66
2017-05-30T00:56:45.958Z,4.22
2017-05-30T00:59:14.179Z,4.60
2017-05-30T01:01:42.402Z,4.58
2017-05-30T01:04:10.604Z,4.48
2017-05-30T01:06:38.841Z,4.06
2017-05-30T01:09:07.071Z,4.30
2017-05-30T01:11:35.282Z,4.60
2017-05-30T01:14:03.499Z,4.74
2017-05-30T01:16:31.723Z,4.08
2017-05-30T01:18:59.944Z,4.58
2017-05-30T01:21:28.173Z,4.78
2017-05-30T01:23:56.383Z,4.50
2017-05-30T01:26:24.624Z,4.58
2017-05-30T01:28:52.835Z,4.48
2017-05-30T01:31:21.051Z,4.44
2017-05-30T01:33:49.267Z,5.28
2017-05-30T01:36:17.503Z,5.32
2017-05-30T01:38:45.723Z,4.96
2017-05-30T01:41:13.943Z,5.50
2017-05-30T01:43:42.160Z,5.04
2017-05-30T01:46:10.378Z,4.90
2017-05-30T01:48:38.595Z,4.62
2017-05-30T01:51:06.808Z,5.04
2017-05-30T01:53:35.033Z,4.56
2017-05-30T01:56:03.247Z,4.46
2017-05-30T01:58:32.038Z,4.24
2017-05-30T02:01:00.258Z,3.86
2017-05-30T02:03:28.467Z,3.74
2017-05-30T02:05:56.691Z,4.32
2017-05-30T02:08:24.907Z,4.10
2017-05-30T02:10:53.144Z,3.84
2017-05-30T02:13:21.363Z,4.04
2017-05-30T02:15:49.581Z,4.40
2017-05-30T02:18:17.803Z,3.74
2017-05-30T02:20:46.028Z,4.30
2017-05-30T02:23:14.246Z,4.14
2017-05-30T02:25:42.478Z,4.06
2017-05-30T02:28:10.684Z,4.20
2017-05-30T02:30:38.907Z,4.32
2017-05-30T02:33:07.125Z,4.62
2017-05-30T02:35:35.352Z,4.34
2017-05-30T02:38:03.565Z,4.38
2017-05-30T02:40:31.796Z,4.42
2017-05-30T02:43:00.012Z,4.22
2017-05-30T02:45:28.219Z,4.20
2017-05-30T02:47:56.444Z,3.66
2017-05-30T02:50:24.655Z,3.86
2017-05-30T02:52:52.875Z,3.82
2017-05-30T02:55:21.096Z,3.80
2017-05-30T02:57:49.312Z,4.48
2017-05-30T03:00:17.527Z,4.38
2017-05-30T03:02:45.752Z,4.80
2017-05-30T03:05:13.975Z,4.48
2017-05-30T03:07:42.201Z,4.02
2017-05-30T03:10:10.423Z,4.70
2017-05-30T03:12:38.653Z,4.02
2017-05-30T03:15:06.871Z,4.24
2017-05-30T03:17:35.087Z,3.60
2017-05-30T03:20:03.309Z,4.06
2017-05-30T03:22:31.523Z,4.10
2017-05-30T03:24:59.747Z,3.98
2017-05-30T03:27:27.963Z,4.32
2017-05-30T03:29:56.182Z,4.38
2017-05-30T03:32:24.390Z,3.54
2017-05-30T03:34:52.612Z,4.36
2017-05-30T03:37:20.836Z,3.16
2017-05-30T03:39:49.060Z,4.00
2017-05-30T03:42:17.281Z,3.72
2017-05-30T03:44:45.566Z,3.40
2017-05-30T03:47:13.775Z,3.42
2017-05-30T03:49:41.984Z,3.44
2017-05-30T03:52:10.200Z,3.84
2017-05-30T03:54:38.415Z,4.04
2017-05-30T03:57:06.643Z,4.08
2017-05-30T03:59:34.860Z,4.28
2017-05-30T04:02:03.079Z,4.40
2017-05-30T04:04:31.296Z,4.38
2017-05-30T04:06:59.509Z,4.38
2017-05-30T04:09:27.728Z,4.02
2017-05-30T04:11:55.945Z,3.96
2017-05-30T04:14:24.168Z,3.58
2017-05-30T04:16:52.391Z,3.90
2017-05-30T04:19:20.614Z,4.20
2017-05-30T04:21:48.857Z,4.60
2017-05-30T04:24:17.072Z,4.40
2017-05-30T04:26:45.289Z,4.02
2017-05-30T04:29:13.507Z,4.40
2017-05-30T04:31:41.726Z,4.40
2017-05-30T04:34:09.952Z,4.06
2017-05-30T04:36:38.167Z,3.88
2017-05-30T04:39:06.394Z,4.22
2017-05-30T04:41:34.611Z,3.92
2017-05-30T04:44:02.827Z,4.66
2017-05-30T04:46:31.056Z,4.50
2017-05-30T04:48:59.278Z,4.80
2017-05-30T04:51:27.494Z,4.46
2017-05-30T04:53:55.716Z,5.10
2017-05-30T04:56:23.927Z,4.64
2017-05-30T04:58:52.152Z,5.48
2017-05-30T05:01:20.363Z,5.14
2017-05-30T05:03:48.574Z,5.06
2017-05-30T05:06:16.799Z,4.72
2017-05-30T05:08:45.013Z,5.66
2017-05-30T05:11:13.248Z,5.56
2017-05-30T05:13:41.478Z,5.50
2017-05-30T05:16:09.700Z,5.76
2017-05-30T05:18:37.922Z,5.44
2017-05-30T05:21:06.139Z,5.82
2017-05-30T05:23:34.359Z,6.18
2017-05-30T05:26:02.591Z,6.88
2017-05-30T05:28:30.816Z,6.04
2017-05-30T05:30:59.036Z,5.64
2017-05-30T05:33:27.247Z,4.36
2017-05-30T05:35:55.487Z,4.24
2017-05-30T05:38:23.695Z,4.48
2017-05-30T05:40:51.912Z,4.14
2017-05-30T05:43:20.131Z,4.56
2017-05-30T05:45:48.354Z,4.46
2017-05-30T05:48:16.566Z,4.96
2017-05-30T05:50:44.783Z,4.84
2017-05-30T05:53:13.008Z,5.46
2017-05-30T05:55:41.230Z,5.12
2017-05-30T05:58:09.459Z,5.64
2017-05-30T06:00:37.684Z,5.30
2017-05-30T06:03:05.904Z,6.08
2017-05-30T06:05:34.132Z,6.44
2017-05-30T06:08:02.375Z,6.38
2017-05-30T06:10:30.602Z,5.38
2017-05-30T06:12:58.828Z,5.50
2017-05-30T06:15:27.045Z,4.64
2017-05-30T06:17:55.260Z,4.30
2017-05-30T06:20:23.492Z,4.68
2017-05-30T06:22:50.948Z,4.06
2017-05-30T06:25:19.168Z,4.22
2017-05-30T06:27:47.379Z,3.88
2017-05-30T06:30:15.600Z,3.80
2017-05-30T06:32:43.807Z,4.20
2017-05-30T06:35:12.031Z,4.60
2017-05-30T06:37:40.244Z,4.90
2017-05-30T06:40:08.463Z,4.00
2017-05-30T06:42:36.683Z,4.48
2017-05-30T06:45:04.904Z,5.08
2017-05-30T06:47:33.123Z,4.90
2017-05-30T06:50:01.371Z,5.42
2017-05-30T06:52:29.583Z,5.38
2017-05-30T06:54:57.796Z,5.10
2017-05-30T06:57:26.023Z,5.36
2017-05-30T06:59:54.249Z,5.38
2017-05-30T07:02:22.467Z,4.66
2017-05-30T07:04:50.692Z,5.00
2017-05-30T07:07:18.916Z,5.30
2017-05-30T07:09:47.131Z,5.06
2017-05-30T07:12:15.355Z,5.76
2017-05-30T07:14:43.568Z,5.54
2017-05-30T07:17:11.793Z,5.14
2017-05-30T07:19:40.007Z,5.58
2017-05-30T07:22:08.233Z,5.60
2017-05-30T07:24:36.452Z,5.52
2017-05-30T07:27:04.685Z,5.54
2017-05-30T07:29:32.900Z,5.46
2017-05-30T07:32:01.144Z,5.38
2017-05-30T07:34:29.364Z,5.98
2017-05-30T07:36:58.380Z,5.46
2017-05-30T07:39:26.603Z,4.60
2017-05-30T07:41:54.829Z,5.68
2017-05-30T07:44:23.051Z,5.58
2017-05-30T07:46:51.271Z,5.94
2017-05-30T07:49:19.496Z,5.42
2017-05-30T07:51:47.772Z,5.80
2017-05-30T07:54:15.959Z,5.72
2017-05-30T07:56:44.172Z,5.50
2017-05-30T07:59:12.388Z,6.42
2017-05-30T08:01:40.603Z,6.98
2017-05-30T08:04:08.848Z,7.98
2017-05-30T08:06:37.084Z,7.58
2017-05-30T08:09:05.291Z,7.26
2017-05-30T08:11:33.523Z,7.26
2017-05-30T08:14:01.747Z,7.74
2017-05-30T08:16:29.971Z,7.48
2017-05-30T08:18:58.188Z,7.60
2017-05-30T08:21:26.415Z,6.60
2017-05-30T08:23:54.632Z,5.88
2017-05-30T08:26:22.864Z,6.10
2017-05-30T08:28:51.081Z,4.42
2017-05-30T08:31:19.311Z,5.72
2017-05-30T08:33:47.524Z,5.20
2017-05-30T08:36:15.745Z,5.56
2017-05-30T08:38:43.960Z,4.80
2017-05-30T08:41:12.179Z,4.74
2017-05-30T08:43:40.400Z,5.14
2017-05-30T08:46:08.635Z,4.78
2017-05-30T08:48:36.863Z,6.08
2017-05-30T08:51:05.079Z,5.42
2017-05-30T08:53:33.312Z,4.96
2017-05-30T08:56:01.523Z,5.20
2017-05-30T08:58:29.739Z,5.00
2017-05-30T09:00:57.954Z,5.02
2017-05-30T09:03:26.176Z,4.98
2017-05-30T09:05:54.389Z,4.50
2017-05-30T09:08:22.616Z,6.86
2017-05-30T09:10:50.831Z,5.74
2017-05-30T09:13:19.053Z,6.80
2017-05-30T09:15:47.268Z,6.46
2017-05-30T09:18:15.491Z,6.98
2017-05-30T09:20:43.719Z,7.16
2017-05-30T09:23:11.974Z,6.80
2017-05-30T09:25:40.193Z,7.38
2017-05-30T09:28:08.436Z,8.50
2017-05-30T09:30:36.658Z,7.88
2017-05-30T09:33:04.871Z,8.74
2017-05-30T09:35:33.091Z,7.10
2017-05-30T09:38:01.312Z,6.00
2017-05-30T09:40:29.533Z,4.08
2017-05-30T09:42:57.746Z,3.80
2017-05-30T09:45:25.967Z,4.34
2017-05-30T09:47:54.189Z,3.50
2017-05-30T09:50:22.411Z,3.90
2017-05-30T09:52:50.628Z,3.54
2017-05-30T09:55:18.853Z,3.90
2017-05-30T09:57:47.075Z,4.12
2017-05-30T10:00:15.299Z,3.90
2017-05-30T10:02:43.518Z,4.00
2017-05-30T10:05:11.768Z,3.66
2017-05-30T10:07:39.979Z,4.48
2017-05-30T10:10:08.195Z,3.98
2017-05-30T10:12:36.414Z,3.64
2017-05-30T10:15:04.636Z,3.88
2017-05-30T10:17:32.859Z,4.44
2017-05-30T10:20:01.079Z,4.30
2017-05-30T10:22:29.299Z,4.30
2017-05-30T10:24:57.517Z,4.00
2017-05-30T10:27:25.740Z,4.82
2017-05-30T10:29:53.959Z,4.12
2017-05-30T10:32:22.184Z,4.52
2017-05-30T10:34:50.407Z,4.32
2017-05-30T10:37:18.628Z,4.30
2017-05-30T10:39:46.848Z,3.94
2017-05-30T10:42:15.071Z,4.20
2017-05-30T10:44:43.281Z,3.96
2017-05-30T10:47:11.503Z,4.04
2017-05-30T10:49:39.729Z,3.70
2017-05-30T10:52:07.954Z,4.10
2017-05-30T10:54:36.187Z,4.22
2017-05-30T10:57:04.407Z,4.28
2017-05-30T10:59:32.639Z,3.70
2017-05-30T11:02:00.851Z,4.38
2017-05-30T11:04:29.083Z,4.58
2017-05-30T11:06:57.307Z,4.50
2017-05-30T11:09:25.529Z,4.70
2017-05-30T11:11:53.744Z,4.70
2017-05-30T11:14:21.974Z,4.74
2017-05-30T11:16:50.191Z,4.04
2017-05-30T11:19:18.411Z,5.34
2017-05-30T11:21:46.631Z,5.42
2017-05-30T11:24:14.855Z,5.28
2017-05-30T11:26:43.075Z,4.42
2017-05-30T11:29:11.304Z,3.44
2017-05-30T11:31:39.520Z,3.64
2017-05-30T11:34:07.743Z,3.40
2017-05-30T11:36:35.963Z,3.46
2017-05-30T11:39:04.183Z,3.90
2017-05-30T11:41:32.411Z,4.10
2017-05-30T11:44:00.631Z,4.02
2017-05-30T11:46:28.859Z,4.28
2017-05-30T11:48:57.076Z,3.42
2017-05-30T11:51:25.295Z,4.00
2017-05-30T11:53:53.574Z,7.42
2017-05-30T11:56:21.840Z,4.66
2017-05-30T11:58:50.058Z,4.04
2017-05-30T12:01:18.281Z,3.90
2017-05-30T12:03:46.505Z,4.22
2017-05-30T12:06:14.733Z,4.34
2017-05-30T12:08:42.956Z,4.18
2017-05-30T12:11:11.181Z,5.18
2017-05-30T12:13:39.407Z,4.76
2017-05-30T12:16:07.634Z,4.70
2017-05-30T12:18:35.851Z,4.50
2017-05-30T12:21:04.078Z,5.00
2017-05-30T12:23:32.300Z,4.68
2017-05-30T12:26:01.003Z,4.20
2017-05-30T12:28:29.222Z,4.48
2017-05-30T12:30:57.436Z,4.42
2017-05-30T12:33:25.671Z,3.92
2017-05-30T12:35:53.891Z,4.46
2017-05-30T12:38:22.124Z,4.70
2017-05-30T12:40:50.339Z,9.14
2017-05-30T12:43:18.567Z,6.04
2017-05-30T12:45:46.791Z,4.32
2017-05-30T12:48:15.012Z,4.88
2017-05-30T12:50:43.244Z,4.24
2017-05-30T12:53:11.456Z,4.84
2017-05-30T12:55:39.680Z,4.90
2017-05-30T12:58:07.894Z,4.82
2017-05-30T13:00:36.129Z,4.28
2017-05-30T13:03:04.347Z,4.04
2017-05-30T13:05:32.578Z,4.38
2017-05-30T13:08:00.787Z,5.48
2017-05-30T13:10:29.024Z,4.42
2017-05-30T13:12:57.243Z,4.92
2017-05-30T13:15:25.473Z,4.14
2017-05-30T13:17:53.679Z,3.70
2017-05-30T13:20:21.910Z,3.58
2017-05-30T13:22:50.122Z,3.84
2017-05-30T13:25:18.334Z,3.40
2017-05-30T13:27:46.555Z,3.78
2017-05-30T13:30:14.778Z,4.10
2017-05-30T13:32:42.991Z,3.90
2017-05-30T13:35:11.211Z,3.82
2017-05-30T13:37:39.440Z,3.76
2017-05-30T13:40:07.654Z,3.88
2017-05-30T13:42:35.887Z,4.08
2017-05-30T13:45:04.108Z,3.86
2017-05-30T13:47:32.325Z,3.90
2017-05-30T13:50:00.544Z,3.92
2017-05-30T13:52:28.768Z,4.02
2017-05-30T13:54:56.979Z,3.88
2017-05-30T13:57:25.199Z,4.16
2017-05-30T13:59:53.423Z,3.98
2017-05-30T14:02:21.643Z,4.28
2017-05-30T14:04:49.856Z,4.48
2017-05-30T14:07:18.107Z,3.50
2017-05-30T14:09:46.327Z,4.00
2017-05-30T14:12:14.542Z,2.90
2017-05-30T14:14:42.767Z,3.10
2017-05-30T14:17:10.989Z,4.76
2017-05-30T14:19:39.222Z,4.56
2017-05-30T14:22:07.431Z,5.42
2017-05-30T14:24:35.650Z,4.92
2017-05-30T14:27:03.866Z,5.48
2017-05-30T14:29:32.102Z,5.50
2017-05-30T14:32:00.317Z,5.14
2017-05-30T14:34:28.548Z,4.76
2017-05-30T14:36:56.762Z,5.68
2017-05-30T14:39:24.997Z,5.32
2017-05-30T14:41:53.214Z,5.44
2017-05-30T14:44:21.443Z,5.22
2017-05-30T14:46:49.655Z,5.24
2017-05-30T14:49:17.903Z,5.82
2017-05-30T14:51:46.117Z,6.08
2017-05-30T14:54:14.339Z,5.94
2017-05-30T14:56:42.566Z,6.28
2017-05-30T14:59:10.787Z,5.62
2017-05-30T15:01:39.011Z,5.50
2017-05-30T15:04:07.236Z,5.60
2017-05-30T15:06:35.466Z,5.50
2017-05-30T15:09:03.707Z,5.86
2017-05-30T15:11:31.927Z,6.12
2017-05-30T15:14:00.135Z,6.20
2017-05-30T15:16:28.351Z,6.16
2017-05-30T15:18:56.569Z,6.00
2017-05-30T15:21:24.783Z,5.82
2017-05-30T15:23:53.010Z,6.24
2017-05-30T15:26:21.247Z,5.70
2017-05-30T15:28:49.462Z,5.42
2017-05-30T15:31:17.687Z,5.60
2017-05-30T15:33:45.919Z,5.50
2017-05-30T15:36:14.136Z,6.04
2017-05-30T15:38:42.488Z,6.06
2017-05-30T15:41:10.722Z,6.38
2017-05-30T15:43:38.943Z,5.40
2017-05-30T15:46:07.257Z,5.52
2017-05-30T15:48:35.477Z,5.98
2017-05-30T15:51:03.691Z,5.36
2017-05-30T15:53:32.944Z,6.12
2017-05-30T15:56:01.155Z,4.98
2017-05-30T15:58:29.387Z,5.68
2017-05-30T16:00:57.595Z,5.74
2017-05-30T16:03:25.820Z,5.86
2017-05-30T16:05:54.035Z,5.76
2017-05-30T16:08:22.260Z,5.96
2017-05-30T16:10:50.554Z,6.22
2017-05-30T16:13:18.824Z,5.76
2017-05-30T16:15:47.044Z,6.34
2017-05-30T16:18:15.262Z,7.18
2017-05-30T16:20:43.490Z,6.34
2017-05-30T16:23:11.751Z,6.08
2017-05-30T16:25:39.970Z,5.84
2017-05-30T16:28:08.193Z,6.02
2017-05-30T16:30:36.408Z,5.92
2017-05-30T16:33:04.698Z,6.06
2017-05-30T16:35:32.919Z,7.18
2017-05-30T16:38:01.128Z,6.70
2017-05-30T16:40:29.407Z,6.66
2017-05-30T16:42:57.621Z,6.70
2017-05-30T16:45:25.863Z,6.38
2017-05-30T16:47:54.075Z,6.78
2017-05-30T16:50:22.299Z,6.34
2017-05-30T16:52:50.519Z,7.22
2017-05-30T16:55:19.855Z,6.50
2017-05-30T16:57:48.080Z,7.54
2017-05-30T17:00:16.300Z,7.34
2017-05-30T17:02:44.528Z,7.48
2017-05-30T17:05:12.790Z,6.60
2017-05-30T17:07:41.029Z,7.70
2017-05-30T17:10:09.265Z,6.44
2017-05-30T17:12:37.492Z,7.58
2017-05-30T17:15:05.703Z,7.98
2017-05-30T17:17:33.930Z,7.20
2017-05-30T17:20:02.163Z,7.50
2017-05-30T17:22:30.384Z,7.38
2017-05-30T17:24:58.600Z,7.28
2017-05-30T17:27:26.824Z,7.44
2017-05-30T17:29:55.034Z,5.96
2017-05-30T17:32:23.280Z,6.56
2017-05-30T17:34:51.508Z,6.34
2017-05-30T17:37:19.727Z,5.98
2017-05-30T17:39:47.957Z,6.00
2017-05-30T17:42:16.176Z,5.84
2017-05-30T17:44:44.405Z,6.14
2017-05-30T17:47:12.620Z,6.44
2017-05-30T17:49:40.841Z,6.34
2017-05-30T17:52:09.064Z,6.78
2017-05-30T17:54:37.284Z,6.50
2017-05-30T17:57:05.498Z,6.56
2017-05-30T17:59:33.733Z,6.78
2017-05-30T18:02:01.948Z,6.20
2017-05-30T18:04:30.172Z,6.34
2017-05-30T18:06:58.708Z,7.00
2017-05-30T18:09:26.960Z,7.12
2017-05-30T18:11:55.167Z,7.58
2017-05-30T18:14:23.383Z,7.28
2017-05-30T18:16:51.607Z,7.04
2017-05-30T18:19:19.827Z,6.92
2017-05-30T18:21:48.058Z,6.80
2017-05-30T18:24:16.286Z,7.26
2017-05-30T18:26:44.499Z,7.18
2017-05-30T18:29:12.715Z,7.54
2017-05-30T18:31:40.947Z,7.32
2017-05-30T18:34:09.163Z,7.22
2017-05-30T18:36:37.387Z,6.90
2017-05-30T18:39:05.602Z,6.78
2017-05-30T18:41:33.848Z,7.24
2017-05-30T18:44:02.071Z,7.30
2017-05-30T18:46:30.288Z,6.88
2017-05-30T18:48:58.512Z,6.72
2017-05-30T18:51:26.731Z,6.76
2017-05-30T18:53:54.955Z,6.78
2017-05-30T18:56:23.172Z,6.22
2017-05-30T18:58:51.411Z,7.08
2017-05-30T19:01:19.618Z,6.88
2017-05-30T19:03:47.852Z,6.68
2017-05-30T19:06:16.068Z,6.56
2017-05-30T19:08:44.291Z,6.62
2017-05-30T19:11:12.506Z,7.42
2017-05-30T19:13:40.727Z,7.38
2017-05-30T19:16:08.943Z,7.00
2017-05-30T19:18:37.175Z,8.30
2017-05-30T19:21:05.410Z,7.30
2017-05-30T19:23:33.626Z,6.78
2017-05-30T19:26:01.844Z,6.18
2017-05-30T19:28:30.061Z,7.28
2017-05-30T19:30:58.284Z,6.52
2017-05-30T19:33:26.508Z,6.24
2017-05-30T19:35:54.733Z,6.20
2017-05-30T19:38:22.943Z,6.10
2017-05-30T19:40:51.175Z,6.34
2017-05-30T19:43:19.393Z,6.98
2017-05-30T19:45:47.615Z,6.38
2017-05-30T19:48:15.832Z,7.38
2017-05-30T19:50:44.052Z,6.72
2017-05-30T19:53:12.276Z,7.80
2017-05-30T19:55:40.487Z,6.86
2017-05-30T19:58:08.708Z,6.88
2017-05-30T20:00:36.925Z,6.74
2017-05-30T20:03:05.153Z,7.04
2017-05-30T20:05:33.373Z,6.94
2017-05-30T20:08:01.612Z,6.86
2017-05-30T20:10:29.837Z,7.28
2017-05-30T20:12:58.061Z,6.82
2017-05-30T20:15:26.280Z,7.24
2017-05-30T20:17:54.499Z,7.14
2017-05-30T20:20:22.761Z,8.00
2017-05-30T20:22:50.990Z,7.40
2017-05-30T20:25:19.219Z,6.90
2017-05-30T20:27:47.427Z,6.78
2017-05-30T20:30:15.651Z,7.52
2017-05-30T20:32:43.863Z,7.74
2017-05-30T20:35:12.089Z,7.72
2017-05-30T20:37:40.299Z,7.04
2017-05-30T20:40:08.565Z,8.38
2017-05-30T20:42:36.787Z,7.06
2017-05-30T20:45:05.007Z,7.28
2017-05-30T20:47:33.229Z,7.16
2017-05-30T20:50:01.483Z,6.84
2017-05-30T20:52:29.696Z,7.08
2017-05-30T20:54:57.915Z,6.68
2017-05-30T20:57:26.139Z,6.32
2017-05-30T20:59:54.369Z,7.38
2017-05-30T21:02:22.583Z,6.50
2017-05-30T21:04:50.802Z,6.44
2017-05-30T21:07:19.062Z,6.84
2017-05-30T21:09:47.287Z,6.20
2017-05-30T21:12:15.829Z,6.58
2017-05-30T21:14:44.051Z,6.72
2017-05-30T21:17:12.291Z,7.10
2017-05-30T21:19:40.507Z,6.84
2017-05-30T21:22:09.136Z,6.24
2017-05-30T21:24:37.346Z,6.04
2017-05-30T21:27:05.571Z,5.88
2017-05-30T21:29:33.827Z,5.84
2017-05-30T21:32:02.076Z,6.04
2017-05-30T21:34:30.299Z,5.86
2017-05-30T21:36:58.528Z,5.72
2017-05-30T21:39:26.775Z,6.22
2017-05-30T21:41:55.015Z,5.80
2017-05-30T21:44:23.237Z,6.34
2017-05-30T21:46:51.447Z,5.50
2017-05-30T21:49:19.686Z,5.70
2017-05-30T21:51:47.907Z,5.24
2017-05-30T21:54:15.371Z,5.80
2017-05-30T21:56:43.613Z,5.46
2017-05-30T21:59:11.912Z,5.94
2017-05-30T22:01:40.127Z,5.76
2017-05-30T22:04:08.343Z,5.54
2017-05-30T22:06:36.644Z,6.14
2017-05-30T22:09:04.864Z,5.78
2017-05-30T22:11:33.084Z,5.54
2017-05-30T22:14:01.304Z,6.48
2017-05-30T22:16:29.524Z,5.70
2017-05-30T22:18:57.736Z,6.00
2017-05-30T22:21:25.983Z,5.86
2017-05-30T22:23:54.199Z,5.40
2017-05-30T22:26:22.411Z,5.10
2017-05-30T22:28:50.635Z,5.66
2017-05-30T22:31:18.856Z,4.98
2017-05-30T22:33:47.083Z,4.72
2017-05-30T22:36:15.303Z,5.30
2017-05-30T22:38:43.514Z,4.84
2017-05-30T22:41:11.743Z,5.02
2017-05-30T22:43:39.973Z,5.50
2017-05-30T22:46:08.178Z,5.12
2017-05-30T22:48:36.399Z,4.90
2017-05-30T22:51:04.615Z,5.04
2017-05-30T22:53:32.839Z,5.42
2017-05-30T22:56:01.056Z,5.64
2017-05-30T22:58:29.282Z,5.18
2017-05-30T23:00:57.499Z,5.28
2017-05-30T23:03:25.710Z,5.06
2017-05-30T23:05:53.932Z,4.92
2017-05-30T23:08:22.149Z,5.08
2017-05-30T23:10:50.367Z,5.28
2017-05-30T23:13:18.591Z,5.22
2017-05-30T23:15:46.811Z,4.80
2017-05-30T23:18:15.114Z,5.66
2017-05-30T23:20:43.327Z,5.70
2017-05-30T23:23:11.546Z,5.46
2017-05-30T23:25:39.764Z,5.22
2017-05-30T23:28:07.983Z,4.96
2017-05-30T23:30:36.210Z,5.06
2017-05-30T23:33:04.423Z,4.86
2017-05-30T23:35:32.640Z,5.12
2017-05-30T23:38:00.863Z,4.84
2017-05-30T23:40:29.099Z,4.88
2017-05-30T23:42:57.319Z,4.68
2017-05-30T23:45:25.539Z,4.76
2017-05-30T23:47:53.763Z,4.84
2017-05-30T23:50:21.974Z,5.52
2017-05-30T23:52:50.194Z,5.26
2017-05-30T23:55:18.406Z,5.12
2017-05-30T23:57:46.639Z,5.20
